Ebensburg, Pennsylvania
Current Conditions -  °F | °C
As of 1:54 PM on Friday 24 Oct 2014 (Local Time) from KJST Reporting Station
Clear Clear  
Wind Chill: 50°   Ceiling: Unl
Heat Index: 50°   Visibility: 10mi
Dew Point: 38°   Wind: 12mph
Humidity: 63%   Direction: 300°WNW
Pressure: 30"   Gusts: NA
Location:  40.49°N, 78.72°W
Report Text: KJST 241754Z AUTO 30010KT 10SM CLR 10/03 A3000 RMK AO2 WSHFT 1702 SLP167 T01000033 10111 20056 58016
Loading
Personal Weather Stations






























Interactive Weather Map
Tropical Storm Tracking
New forecast layout! Learn more

10-Day Weather Forecast

Advertisements
Track Severe Weather on mobile